Time;durP1;ratioP1;P1;durP2;ratioP2;P2;SDS_P1;SDS_P2;PMS_P1;PMS_P2;Temp;Humidity;BMP_temperature;BMP_pressure;BME280_temperature;BME280_humidity;BME280_pressure;Samples;Min_cycle;Max_cycle;Signal;HPM_P1;HPM_P2
2023/09/27 00:00:19;;;;;;;3.38;2.80;;;14.30;64.60;;;;;;5055051;28;20482;-60
2023/09/27 00:02:46;;;;;;;4.18;2.42;;;14.30;64.70;;;;;;5063510;28;20081;-61
2023/09/27 00:05:12;;;;;;;3.00;2.58;;;14.30;64.70;;;;;;5058728;28;20036;-60
2023/09/27 00:07:39;;;;;;;2.97;2.65;;;14.20;64.70;;;;;;5062310;28;20048;-60
2023/09/27 00:10:07;;;;;;;3.05;2.67;;;14.20;64.70;;;;;;5061468;28;20067;-60
2023/09/27 00:12:33;;;;;;;3.65;2.80;;;14.20;64.80;;;;;;5057837;28;20087;-61
2023/09/27 00:15:01;;;;;;;4.28;2.80;;;14.10;64.80;;;;;;5056998;28;20045;-60
2023/09/27 00:17:28;;;;;;;6.70;2.70;;;14.10;64.80;;;;;;5064470;28;20063;-60
2023/09/27 00:19:54;;;;;;;3.70;2.88;;;14.10;64.80;;;;;;5063411;28;20106;-60
2023/09/27 00:22:19;;;;;;;4.85;2.90;;;14.00;64.80;;;;;;5060172;28;20036;-60
2023/09/27 00:24:45;;;;;;;4.32;3.10;;;14.00;64.90;;;;;;5061535;28;20422;-60
2023/09/27 00:27:11;;;;;;;4.10;2.92;;;13.90;65.00;;;;;;5061840;28;20032;-61
2023/09/27 00:29:37;;;;;;;3.88;2.60;;;13.90;65.20;;;;;;5053594;28;20391;-60
2023/09/27 00:32:03;;;;;;;5.38;2.88;;;13.90;65.30;;;;;;5061273;28;20043;-61
2023/09/27 00:34:29;;;;;;;3.67;2.78;;;13.80;65.30;;;;;;5057415;28;20029;-61
2023/09/27 00:36:54;;;;;;;3.97;2.70;;;13.80;65.40;;;;;;5049642;28;20592;-61
2023/09/27 00:39:20;;;;;;;4.00;2.90;;;13.80;65.40;;;;;;5060960;28;20099;-60
2023/09/27 00:41:46;;;;;;;4.13;2.88;;;13.70;65.50;;;;;;5056166;28;20071;-60
2023/09/27 00:44:12;;;;;;;3.90;2.90;;;13.70;65.60;;;;;;5054563;28;20017;-60
2023/09/27 00:46:38;;;;;;;4.80;2.72;;;13.70;66.50;;;;;;5055795;28;20029;-61
2023/09/27 00:49:04;;;;;;;4.25;3.30;;;13.70;65.90;;;;;;5064218;28;20025;-61
2023/09/27 00:51:31;;;;;;;3.78;3.20;;;13.70;66.10;;;;;;5056120;28;20036;-61
2023/09/27 00:53:58;;;;;;;4.35;3.00;;;13.70;66.00;;;;;;5059769;28;20435;-60
2023/09/27 00:56:24;;;;;;;3.95;3.00;;;13.60;65.80;;;;;;5062924;28;20029;-60
2023/09/27 00:58:51;;;;;;;4.35;2.90;;;13.60;65.90;;;;;;5062168;28;20123;-60
2023/09/27 01:01:17;;;;;;;4.47;3.05;;;13.60;66.10;;;;;;5056919;28;20030;-60
2023/09/27 01:03:42;;;;;;;4.25;3.08;;;13.60;66.00;;;;;;5059907;28;20036;-60
2023/09/27 01:06:09;;;;;;;3.05;2.75;;;13.60;66.00;;;;;;5066841;28;20024;-60
2023/09/27 01:08:35;;;;;;;5.30;2.80;;;13.50;66.10;;;;;;5061673;28;20109;-60
2023/09/27 01:11:03;;;;;;;3.55;3.03;;;13.50;66.10;;;;;;5059349;28;20056;-61
2023/09/27 01:13:29;;;;;;;3.30;2.78;;;13.50;66.20;;;;;;5063315;28;20064;-60
2023/09/27 01:15:55;;;;;;;3.28;2.97;;;13.40;66.20;;;;;;5051400;28;20023;-60
2023/09/27 01:18:20;;;;;;;4.65;3.00;;;13.40;66.20;;;;;;5057600;28;20043;-62
2023/09/27 01:20:46;;;;;;;6.85;2.90;;;13.40;66.10;;;;;;5061184;28;20024;-60
2023/09/27 01:23:11;;;;;;;3.80;3.00;;;13.30;65.90;;;;;;5062763;28;20045;-61
2023/09/27 01:25:38;;;;;;;2.60;2.40;;;13.30;66.00;;;;;;5064364;28;20028;-60
2023/09/27 01:28:07;;;;;;;5.05;3.03;;;13.30;66.10;;;;;;5067277;28;20111;-60
2023/09/27 01:30:33;;;;;;;4.53;2.95;;;13.30;66.00;;;;;;5055759;28;20081;-61
2023/09/27 01:33:06;;;;;;;3.17;2.75;;;13.20;65.90;;;;;;5055166;28;20013;-61
2023/09/27 01:35:36;;;;;;;5.78;2.90;;;13.20;66.10;;;;;;5054732;28;20039;-60
2023/09/27 01:38:02;;;;;;;3.75;2.80;;;13.20;66.50;;;;;;5059658;28;20021;-60
2023/09/27 01:40:31;;;;;;;3.70;2.85;;;13.20;66.40;;;;;;5065511;28;20075;-60
2023/09/27 01:42:58;;;;;;;3.45;3.00;;;13.20;66.40;;;;;;5069714;28;20040;-62
2023/09/27 01:45:24;;;;;;;5.55;3.20;;;13.10;66.50;;;;;;4976209;28;20707;-60
2023/09/27 01:47:50;;;;;;;4.88;2.95;;;13.10;66.50;;;;;;5063888;28;20017;-60
2023/09/27 01:50:19;;;;;;;3.05;2.58;;;13.10;66.50;;;;;;5060129;28;20029;-60
2023/09/27 01:52:45;;;;;;;3.38;2.90;;;13.10;66.50;;;;;;5062264;28;20372;-60
2023/09/27 01:55:11;;;;;;;5.78;2.92;;;13.00;66.30;;;;;;5062866;28;20051;-60
2023/09/27 01:57:37;;;;;;;3.08;2.75;;;13.00;66.40;;;;;;5065310;28;20027;-60
2023/09/27 02:00:08;;;;;;;3.17;2.88;;;13.00;66.30;;;;;;5056236;28;20112;-61
2023/09/27 02:02:34;;;;;;;5.15;2.88;;;13.00;66.60;;;;;;5058615;28;20036;-60
2023/09/27 02:05:00;;;;;;;5.57;3.25;;;12.90;66.50;;;;;;5063241;28;20031;-60
2023/09/27 02:07:25;;;;;;;3.33;2.88;;;12.90;66.60;;;;;;5058658;28;20028;-60
2023/09/27 02:09:51;;;;;;;3.53;2.70;;;12.90;66.60;;;;;;5061970;28;20024;-60
2023/09/27 02:12:16;;;;;;;3.85;2.75;;;12.90;66.60;;;;;;5055116;28;20128;-61
2023/09/27 02:14:42;;;;;;;5.72;3.28;;;12.80;66.50;;;;;;5051557;28;20412;-60
2023/09/27 02:17:08;;;;;;;4.82;2.85;;;12.80;66.40;;;;;;5051760;28;20029;-60
2023/09/27 02:19:34;;;;;;;4.10;2.90;;;12.80;66.50;;;;;;5059738;28;20536;-61
2023/09/27 02:22:00;;;;;;;3.42;3.03;;;12.80;66.60;;;;;;5055103;28;20051;-60
2023/09/27 02:24:26;;;;;;;3.55;2.90;;;12.80;66.70;;;;;;5059734;28;20020;-61
2023/09/27 02:26:53;;;;;;;4.35;3.00;;;12.80;66.80;;;;;;5062982;28;20119;-60
2023/09/27 02:29:20;;;;;;;3.10;2.80;;;12.70;66.70;;;;;;5058752;28;20062;-61
2023/09/27 02:31:46;;;;;;;4.05;3.10;;;12.70;66.90;;;;;;5054017;28;20040;-61
2023/09/27 02:34:16;;;;;;;3.72;2.80;;;12.70;66.80;;;;;;5063279;28;20114;-62
2023/09/27 02:36:42;;;;;;;5.18;2.92;;;12.70;66.70;;;;;;5060019;28;20028;-61
2023/09/27 02:39:10;;;;;;;4.30;2.95;;;12.70;66.50;;;;;;5056728;28;20078;-61
2023/09/27 02:41:36;;;;;;;3.47;3.00;;;12.70;66.60;;;;;;5060759;28;20403;-60
2023/09/27 02:44:01;;;;;;;5.43;3.13;;;12.60;66.70;;;;;;5062740;28;20040;-60
2023/09/27 02:46:27;;;;;;;4.30;3.13;;;12.60;66.80;;;;;;5010295;28;20059;-61
2023/09/27 02:48:53;;;;;;;3.67;3.33;;;12.60;66.90;;;;;;5063687;28;20103;-61
2023/09/27 02:51:18;;;;;;;4.82;3.40;;;12.60;66.90;;;;;;5057871;28;20053;-60
2023/09/27 02:53:44;;;;;;;3.60;3.00;;;12.60;67.10;;;;;;5054944;28;20555;-62
2023/09/27 02:56:11;;;;;;;4.30;3.20;;;12.50;67.10;;;;;;5046899;28;20029;-60
2023/09/27 02:58:37;;;;;;;3.65;3.20;;;12.50;67.00;;;;;;5058978;28;20115;-60
2023/09/27 03:01:06;;;;;;;3.40;3.00;;;12.50;67.00;;;;;;5061042;28;20035;-60
2023/09/27 03:03:33;;;;;;;3.55;3.20;;;12.50;67.10;;;;;;5063579;28;20047;-61
2023/09/27 03:05:59;;;;;;;4.15;3.38;;;12.50;67.20;;;;;;5063567;28;20019;-61
2023/09/27 03:08:25;;;;;;;7.43;3.35;;;12.40;67.20;;;;;;5058538;28;20037;-60
2023/09/27 03:10:51;;;;;;;3.78;3.15;;;12.40;67.10;;;;;;5060028;28;20032;-61
2023/09/27 03:13:18;;;;;;;6.57;3.38;;;12.40;67.00;;;;;;5059373;28;20052;-60
2023/09/27 03:15:44;;;;;;;8.25;3.85;;;12.40;67.00;;;;;;5062965;28;20021;-62
2023/09/27 03:18:10;;;;;;;5.00;3.30;;;12.40;67.00;;;;;;5061773;28;20511;-61
2023/09/27 03:20:36;;;;;;;4.50;3.70;;;12.40;67.10;;;;;;5056190;28;20036;-60
2023/09/27 03:23:02;;;;;;;4.13;3.35;;;12.30;67.10;;;;;;5068591;28;20090;-61
2023/09/27 03:25:28;;;;;;;4.03;3.53;;;12.30;67.20;;;;;;5063825;28;20042;-60
2023/09/27 03:27:54;;;;;;;4.82;3.28;;;12.30;67.10;;;;;;5060832;28;20028;-60
2023/09/27 03:30:20;;;;;;;4.22;3.53;;;12.30;67.10;;;;;;5061520;28;20074;-61
2023/09/27 03:32:46;;;;;;;3.70;3.25;;;12.30;67.10;;;;;;5067713;28;20501;-61
2023/09/27 03:35:12;;;;;;;3.50;3.20;;;12.20;67.00;;;;;;5059370;28;20403;-63
2023/09/27 03:37:37;;;;;;;4.35;2.95;;;12.20;67.10;;;;;;5063679;28;20434;-60
2023/09/27 03:40:07;;;;;;;3.30;2.95;;;12.20;67.10;;;;;;5065507;28;20058;-60
2023/09/27 03:42:33;;;;;;;4.63;2.95;;;12.20;67.20;;;;;;5051991;28;20050;-61
2023/09/27 03:44:59;;;;;;;3.78;3.10;;;12.20;67.40;;;;;;4958422;28;20633;-60
2023/09/27 03:47:25;;;;;;;6.75;3.20;;;12.10;67.40;;;;;;5060075;28;20436;-60
2023/09/27 03:49:50;;;;;;;4.03;2.90;;;12.20;67.30;;;;;;5057512;28;20112;-60
2023/09/27 03:52:16;;;;;;;3.35;3.00;;;12.10;67.20;;;;;;5060252;28;20471;-60
2023/09/27 03:54:42;;;;;;;3.72;3.10;;;12.10;67.40;;;;;;5058964;28;20026;-60
2023/09/27 03:57:07;;;;;;;3.60;3.10;;;12.10;67.50;;;;;;5057216;28;20148;-60
2023/09/27 03:59:33;;;;;;;4.20;3.22;;;12.10;68.20;;;;;;5056648;28;20036;-60
2023/09/27 04:01:59;;;;;;;3.78;3.35;;;12.10;67.60;;;;;;5053745;28;20031;-62
2023/09/27 04:04:24;;;;;;;7.45;3.65;;;12.10;67.60;;;;;;5058250;28;20074;-60
2023/09/27 04:06:51;;;;;;;3.53;3.17;;;12.10;67.50;;;;;;5063156;28;20022;-60
2023/09/27 04:09:17;;;;;;;5.05;3.00;;;12.00;67.40;;;;;;5056342;28;20493;-60
2023/09/27 04:11:42;;;;;;;6.40;3.88;;;12.00;67.50;;;;;;5061391;28;20032;-61
2023/09/27 04:14:08;;;;;;;7.45;3.40;;;12.00;67.60;;;;;;5061339;28;20024;-60
2023/09/27 04:16:34;;;;;;;4.80;3.55;;;12.00;67.80;;;;;;5064504;28;20032;-61
2023/09/27 04:18:59;;;;;;;4.82;3.65;;;12.00;67.80;;;;;;5056230;28;20021;-60
2023/09/27 04:21:25;;;;;;;8.52;3.25;;;12.00;67.80;;;;;;5059298;28;20052;-62
2023/09/27 04:23:55;;;;;;;4.55;3.10;;;12.00;67.80;;;;;;5046138;28;20589;-61
2023/09/27 04:26:22;;;;;;;4.32;3.08;;;12.00;67.90;;;;;;5057168;28;20045;-60
2023/09/27 04:28:47;;;;;;;3.65;3.00;;;11.90;67.80;;;;;;5053004;28;20542;-60
2023/09/27 04:31:13;;;;;;;3.70;3.13;;;11.90;67.80;;;;;;5067144;28;20110;-60
2023/09/27 04:33:41;;;;;;;3.40;2.90;;;11.90;67.80;;;;;;5049865;28;20063;-60
2023/09/27 04:36:07;;;;;;;4.57;3.33;;;11.90;68.00;;;;;;5059792;28;20361;-61
2023/09/27 04:38:32;;;;;;;4.75;3.15;;;11.90;68.00;;;;;;5053323;28;20032;-60
2023/09/27 04:40:58;;;;;;;5.00;2.97;;;11.90;68.20;;;;;;5058626;28;20047;-60
2023/09/27 04:43:24;;;;;;;3.95;3.50;;;11.90;68.30;;;;;;5054475;28;20541;-62
2023/09/27 04:45:51;;;;;;;8.05;3.30;;;11.90;68.30;;;;;;5057415;28;20029;-60
2023/09/27 04:48:17;;;;;;;4.43;3.28;;;11.90;68.30;;;;;;5062664;28;20037;-60
2023/09/27 04:50:44;;;;;;;4.15;3.15;;;11.90;68.20;;;;;;5055456;28;20055;-60
2023/09/27 04:53:09;;;;;;;3.47;3.17;;;11.90;68.20;;;;;;5058654;28;20032;-60
2023/09/27 04:55:35;;;;;;;3.80;3.30;;;11.90;68.40;;;;;;5059879;28;20406;-59
2023/09/27 04:58:01;;;;;;;5.40;3.35;;;11.90;68.40;;;;;;5055192;28;20336;-60
2023/09/27 05:00:27;;;;;;;5.47;3.40;;;11.90;68.50;;;;;;5054649;28;20497;-61
2023/09/27 05:02:52;;;;;;;4.97;3.40;;;11.90;68.50;;;;;;5055575;28;20056;-62
2023/09/27 05:05:18;;;;;;;6.88;3.50;;;11.90;68.50;;;;;;5062931;28;20051;-60
2023/09/27 05:07:45;;;;;;;4.90;3.35;;;11.90;68.40;;;;;;5055377;28;20086;-62
2023/09/27 05:10:11;;;;;;;5.00;3.70;;;11.90;68.40;;;;;;5063288;28;20020;-60
2023/09/27 05:12:37;;;;;;;6.45;3.55;;;11.80;68.30;;;;;;5061360;28;20437;-60
2023/09/27 05:15:03;;;;;;;3.63;3.20;;;11.80;68.10;;;;;;5058192;28;20029;-61
2023/09/27 05:17:29;;;;;;;5.10;3.53;;;11.80;68.10;;;;;;5063019;28;20017;-61
2023/09/27 05:19:54;;;;;;;4.35;3.50;;;11.80;68.10;;;;;;5067049;28;20542;-60
2023/09/27 05:22:20;;;;;;;7.10;3.20;;;11.80;68.10;;;;;;5067283;28;20040;-60
2023/09/27 05:24:46;;;;;;;4.35;3.35;;;11.80;68.00;;;;;;5057237;28;20060;-60
2023/09/27 05:27:13;;;;;;;3.92;2.97;;;11.80;68.10;;;;;;5065098;28;20067;-59
2023/09/27 05:29:39;;;;;;;7.95;3.50;;;11.80;68.20;;;;;;5066756;28;20042;-61
2023/09/27 05:32:05;;;;;;;4.97;3.70;;;11.80;68.30;;;;;;5060869;28;20446;-62
2023/09/27 05:34:31;;;;;;;6.40;4.15;;;11.80;68.30;;;;;;5062894;28;20131;-59
2023/09/27 05:36:57;;;;;;;8.73;3.72;;;11.80;68.40;;;;;;5067146;28;20102;-60
2023/09/27 05:39:23;;;;;;;6.93;3.67;;;11.80;68.50;;;;;;5067508;28;20315;-60
2023/09/27 05:41:49;;;;;;;5.93;3.85;;;11.80;68.60;;;;;;5062080;28;20528;-61
2023/09/27 05:44:16;;;;;;;5.95;4.40;;;11.80;68.80;;;;;;5053383;28;20033;-60
2023/09/27 05:46:43;;;;;;;5.35;4.05;;;11.80;68.80;;;;;;4998021;28;20021;-61
2023/09/27 05:49:11;;;;;;;4.55;3.90;;;11.80;68.80;;;;;;5057359;28;20028;-60
2023/09/27 05:51:37;;;;;;;7.70;4.53;;;11.90;69.00;;;;;;5070205;28;20024;-61
2023/09/27 05:54:05;;;;;;;6.80;4.00;;;11.90;69.10;;;;;;5071362;28;20016;-60
2023/09/27 05:56:33;;;;;;;8.00;4.22;;;11.90;69.10;;;;;;5058951;28;20033;-60
2023/09/27 05:58:59;;;;;;;5.07;3.72;;;12.00;69.10;;;;;;5068370;28;20487;-60
2023/09/27 06:01:25;;;;;;;7.00;4.53;;;12.00;69.10;;;;;;5062360;28;20024;-61
2023/09/27 06:03:51;;;;;;;7.70;4.07;;;12.10;69.10;;;;;;5066751;28;20391;-61
2023/09/27 06:06:17;;;;;;;7.88;3.95;;;12.10;69.10;;;;;;5064481;28;20100;-61
2023/09/27 06:08:42;;;;;;;10.23;4.38;;;12.10;69.10;;;;;;5059269;28;20063;-61
2023/09/27 06:11:10;;;;;;;11.32;5.13;;;12.20;69.10;;;;;;5061089;28;20025;-61
2023/09/27 06:13:37;;;;;;;10.68;4.28;;;12.20;69.10;;;;;;5062207;28;20040;-60
2023/09/27 06:16:03;;;;;;;6.60;4.18;;;12.30;69.20;;;;;;5064645;28;20108;-62
2023/09/27 06:18:29;;;;;;;6.32;3.90;;;12.30;69.30;;;;;;5066096;28;20945;-61
2023/09/27 06:20:54;;;;;;;9.50;4.20;;;12.40;69.40;;;;;;5054604;28;20487;-61
2023/09/27 06:23:20;;;;;;;5.18;3.78;;;12.40;69.60;;;;;;5065422;28;20462;-61
2023/09/27 06:25:46;;;;;;;6.30;4.40;;;12.50;69.60;;;;;;5057849;28;20107;-61
2023/09/27 06:28:15;;;;;;;7.57;4.25;;;12.60;69.70;;;;;;5069391;28;20510;-61
2023/09/27 06:30:41;;;;;;;6.85;3.85;;;12.70;69.60;;;;;;5065859;28;20028;-61
2023/09/27 06:33:10;;;;;;;5.53;3.90;;;12.80;69.60;;;;;;5060264;28;20410;-62
2023/09/27 06:35:37;;;;;;;12.55;4.07;;;12.90;69.70;;;;;;5053906;28;20024;-61
2023/09/27 06:38:03;;;;;;;10.30;3.72;;;13.00;69.70;;;;;;5063797;28;20025;-61
2023/09/27 06:40:29;;;;;;;6.60;3.63;;;13.20;69.90;;;;;;5066011;28;20142;-61
2023/09/27 06:42:55;;;;;;;7.63;3.58;;;13.30;69.90;;;;;;5063130;28;20506;-61
2023/09/27 06:45:22;;;;;;;4.78;3.50;;;13.40;69.70;;;;;;5058333;28;20025;-61
2023/09/27 06:47:48;;;;;;;9.13;4.22;;;13.50;69.60;;;;;;5065095;28;20020;-61
2023/09/27 06:50:17;;;;;;;6.88;3.47;;;13.60;69.50;;;;;;5067513;28;20411;-62
2023/09/27 06:52:43;;;;;;;6.15;3.75;;;13.70;69.40;;;;;;5070424;28;20028;-61
2023/09/27 06:55:10;;;;;;;8.38;3.92;;;13.80;69.50;;;;;;5060932;28;20029;-61
2023/09/27 06:57:37;;;;;;;11.32;3.83;;;13.90;69.50;;;;;;5064445;28;20032;-62
2023/09/27 07:00:18;;;;;;;11.52;4.55;;;14.00;69.40;;;;;;5058695;28;20025;-61
2023/09/27 07:02:47;;;;;;;8.23;4.10;;;14.20;69.40;;;;;;5065785;28;20040;-61
2023/09/27 07:05:13;;;;;;;7.40;4.00;;;14.30;69.30;;;;;;5062436;28;20020;-62
2023/09/27 07:07:39;;;;;;;14.82;4.35;;;14.50;69.20;;;;;;5067926;28;20035;-61
2023/09/27 07:10:06;;;;;;;6.65;4.22;;;14.60;69.00;;;;;;5061073;28;20018;-61
2023/09/27 07:12:33;;;;;;;7.20;3.95;;;14.80;68.90;;;;;;5056685;28;20099;-62
2023/09/27 07:14:59;;;;;;;5.88;3.67;;;14.90;68.60;;;;;;5060361;28;20028;-61
2023/09/27 07:17:25;;;;;;;9.30;4.25;;;15.00;68.50;;;;;;5064085;28;20043;-62
2023/09/27 07:19:53;;;;;;;13.57;4.28;;;15.10;68.30;;;;;;5056909;28;20134;-61
2023/09/27 07:22:19;;;;;;;9.02;4.28;;;15.30;68.30;;;;;;5058182;28;20032;-61
2023/09/27 07:24:45;;;;;;;7.43;3.72;;;15.40;68.20;;;;;;5052138;28;20048;-61
2023/09/27 07:27:11;;;;;;;6.90;4.10;;;15.50;68.20;;;;;;5059447;28;20391;-60
2023/09/27 07:29:37;;;;;;;6.47;4.20;;;15.70;68.20;;;;;;5065222;28;20024;-60
2023/09/27 07:32:04;;;;;;;5.60;3.65;;;15.80;68.00;;;;;;5057613;28;20024;-61
2023/09/27 07:34:30;;;;;;;5.18;3.78;;;15.90;67.80;;;;;;5066410;28;20025;-63
2023/09/27 07:36:56;;;;;;;5.80;3.85;;;16.10;67.80;;;;;;5060793;28;20017;-61
2023/09/27 07:39:23;;;;;;;10.95;4.30;;;16.20;67.80;;;;;;5061648;28;20055;-61
2023/09/27 07:41:49;;;;;;;8.93;4.53;;;16.40;67.50;;;;;;5066048;28;20518;-62
2023/09/27 07:44:15;;;;;;;8.60;4.35;;;16.50;67.20;;;;;;5066910;28;20036;-61
2023/09/27 07:46:41;;;;;;;9.13;4.47;;;16.60;66.80;;;;;;5050608;28;20036;-61
2023/09/27 07:49:08;;;;;;;9.65;4.63;;;16.70;66.80;;;;;;5063939;28;20899;-61
2023/09/27 07:51:34;;;;;;;6.55;4.45;;;16.80;66.90;;;;;;5062567;28;20475;-61
2023/09/27 07:53:59;;;;;;;11.23;5.28;;;16.90;66.80;;;;;;5068699;28;20094;-61
2023/09/27 07:56:26;;;;;;;7.28;5.25;;;17.10;66.70;;;;;;5059611;28;20582;-62
2023/09/27 07:58:53;;;;;;;12.13;5.55;;;17.20;66.50;;;;;;5061066;28;20017;-62
2023/09/27 08:01:23;;;;;;;7.95;5.43;;;17.40;66.50;;;;;;5058134;28;20119;-61
2023/09/27 08:03:51;;;;;;;10.68;5.38;;;17.50;66.40;;;;;;5061656;28;20037;-62
2023/09/27 08:06:18;;;;;;;12.80;5.68;;;17.60;66.20;;;;;;5056238;28;20029;-64
2023/09/27 08:08:44;;;;;;;9.38;5.60;;;17.80;66.10;;;;;;5064812;28;20086;-61
2023/09/27 08:11:13;;;;;;;11.98;8.88;;;18.00;65.90;;;;;;5064368;28;20067;-62
2023/09/27 08:13:39;;;;;;;12.65;7.93;;;18.10;65.70;;;;;;5068605;28;20044;-63
2023/09/27 08:16:07;;;;;;;11.90;7.10;;;18.30;65.60;;;;;;5066736;28;20041;-61
2023/09/27 08:18:40;;;;;;;9.27;7.22;;;18.50;65.50;;;;;;5063386;28;20023;-61
2023/09/27 08:21:05;;;;;;;10.30;6.88;;;18.60;65.10;;;;;;5062866;28;20348;-62
2023/09/27 08:23:32;;;;;;;9.68;7.03;;;18.80;64.80;;;;;;5062114;28;20051;-62
2023/09/27 08:25:58;;;;;;;10.82;7.10;;;18.90;64.50;;;;;;5067130;28;20028;-62
2023/09/27 08:28:23;;;;;;;13.60;6.55;;;19.00;64.50;;;;;;5061854;28;20424;-61
2023/09/27 08:30:49;;;;;;;10.90;6.45;;;19.20;64.60;;;;;;5063863;28;20031;-62
2023/09/27 08:33:15;;;;;;;12.10;6.15;;;19.20;64.40;;;;;;5052562;28;20051;-62
2023/09/27 08:35:41;;;;;;;9.50;6.47;;;19.40;64.30;;;;;;5069927;28;20650;-64
2023/09/27 08:38:08;;;;;;;12.77;6.57;;;19.60;64.10;;;;;;5071373;28;20035;-62
2023/09/27 08:40:34;;;;;;;10.55;5.00;;;19.70;63.70;;;;;;5066120;28;20039;-61
2023/09/27 08:43:00;;;;;;;10.45;5.68;;;19.80;63.70;;;;;;5069005;28;20028;-61
2023/09/27 08:45:27;;;;;;;10.20;5.32;;;20.00;63.60;;;;;;5064997;28;20032;-61
2023/09/27 08:47:54;;;;;;;9.82;5.72;;;20.10;63.30;;;;;;5066020;28;20094;-61
2023/09/27 08:50:20;;;;;;;10.98;5.70;;;20.30;63.10;;;;;;5061406;28;20032;-62
2023/09/27 08:52:48;;;;;;;11.32;5.93;;;20.40;63.10;;;;;;5063021;28;20661;-61
2023/09/27 08:55:15;;;;;;;12.63;5.65;;;20.60;63.10;;;;;;5069393;28;20043;-61
2023/09/27 08:57:48;;;;;;;12.18;5.63;;;20.80;63.10;;;;;;5058717;28;20020;-60
2023/09/27 09:00:19;;;;;;;9.45;5.35;;;20.90;62.60;;;;;;5061693;28;20025;-61
2023/09/27 09:02:56;;;;;;;7.88;5.50;;;21.00;62.20;;;;;;5056245;28;20535;-62
2023/09/27 09:05:22;;;;;;;7.30;5.85;;;21.20;61.70;;;;;;5063754;28;20036;-62
2023/09/27 09:07:49;;;;;;;10.60;5.47;;;21.30;61.60;;;;;;5068462;28;20458;-62
2023/09/27 09:10:16;;;;;;;10.07;4.38;;;21.40;61.50;;;;;;5064788;28;20120;-61
2023/09/27 09:12:45;;;;;;;9.77;5.57;;;21.60;61.10;;;;;;5057449;28;20052;-61
2023/09/27 09:15:25;;;;;;;7.85;4.60;;;21.70;60.90;;;;;;5063961;28;20388;-61
2023/09/27 09:17:57;;;;;;;9.18;4.78;;;21.80;60.60;;;;;;5056052;28;20384;-60
2023/09/27 09:20:32;;;;;;;7.45;4.93;;;22.00;60.90;;;;;;5064115;28;20060;-62
2023/09/27 09:23:02;;;;;;;11.73;4.55;;;22.10;60.60;;;;;;5054510;28;20024;-61
2023/09/27 09:25:28;;;;;;;8.40;4.57;;;22.30;60.20;;;;;;5078287;28;20029;-62
2023/09/27 09:28:13;;;;;;;7.03;4.35;;;22.40;59.90;;;;;;5063923;28;20032;-61
2023/09/27 09:30:40;;;;;;;9.82;4.65;;;22.50;58.60;;;;;;5066518;28;20074;-62
2023/09/27 09:33:15;;;;;;;6.65;4.40;;;22.60;58.80;;;;;;5057509;28;20071;-63
2023/09/27 09:35:41;;;;;;;4.97;3.25;;;22.80;58.40;;;;;;5055592;28;20120;-61
2023/09/27 09:38:07;;;;;;;5.10;3.53;;;22.90;59.10;;;;;;5055175;28;20144;-62
2023/09/27 09:40:34;;;;;;;6.68;4.15;;;23.00;58.10;;;;;;5060258;28;20032;-61
2023/09/27 09:43:00;;;;;;;8.57;4.50;;;23.10;58.10;;;;;;5060292;28;20029;-62
2023/09/27 09:45:26;;;;;;;10.32;4.60;;;23.20;57.90;;;;;;5055751;28;20128;-62
2023/09/27 09:47:52;;;;;;;7.18;3.95;;;23.30;57.70;;;;;;5051371;28;20016;-61
2023/09/27 09:50:18;;;;;;;8.73;4.32;;;23.40;57.70;;;;;;5062395;28;20031;-62
2023/09/27 09:52:57;;;;;;;5.93;4.45;;;23.50;57.60;;;;;;5060010;28;20075;-61
2023/09/27 09:55:29;;;;;;;6.25;4.15;;;23.60;57.10;;;;;;5062829;28;20017;-61
2023/09/27 09:58:20;;;;;;;5.43;4.25;;;23.80;57.30;;;;;;5056216;28;20024;-62
2023/09/27 10:00:51;;;;;;;6.50;4.07;;;23.90;56.60;;;;;;5052917;28;20040;-61
2023/09/27 10:03:30;;;;;;;7.00;4.68;;;24.00;57.20;;;;;;5063411;28;20071;-62
2023/09/27 10:05:56;;;;;;;6.30;4.60;;;24.00;56.60;;;;;;5060251;28;20507;-62
2023/09/27 10:08:24;;;;;;;6.63;4.57;;;24.10;56.70;;;;;;5060020;28;20043;-61
2023/09/27 10:10:50;;;;;;;6.80;4.63;;;24.20;56.60;;;;;;5067090;28;20017;-62
2023/09/27 10:13:18;;;;;;;5.57;4.38;;;24.30;56.60;;;;;;5065074;28;20511;-62
2023/09/27 10:15:44;;;;;;;5.45;3.70;;;24.30;56.30;;;;;;5073513;28;20031;-61
2023/09/27 10:18:30;;;;;;;6.65;3.90;;;24.40;56.00;;;;;;5066635;28;20408;-62
2023/09/27 10:21:05;;;;;;;6.65;4.55;;;24.50;55.50;;;;;;5056317;28;20114;-61
2023/09/27 10:23:45;;;;;;;6.40;4.00;;;24.50;55.20;;;;;;5067182;28;20542;-61
2023/09/27 10:26:32;;;;;;;5.28;3.95;;;24.60;54.80;;;;;;5063330;28;20036;-63
2023/09/27 10:29:01;;;;;;;6.55;4.15;;;24.70;54.80;;;;;;5057742;28;20024;-62
2023/09/27 10:31:27;;;;;;;9.27;4.32;;;24.80;55.00;;;;;;5065956;28;20054;-61
2023/09/27 10:33:53;;;;;;;6.85;3.95;;;24.90;55.20;;;;;;5059908;28;20020;-63
2023/09/27 10:36:19;;;;;;;8.73;3.85;;;25.00;54.90;;;;;;5061925;28;20041;-62
2023/09/27 10:38:47;;;;;;;6.15;3.20;;;25.00;54.70;;;;;;5066185;28;20028;-62
2023/09/27 10:41:31;;;;;;;4.78;3.38;;;25.10;54.70;;;;;;5066126;28;20021;-62
2023/09/27 10:43:57;;;;;;;9.65;3.78;;;25.20;54.00;;;;;;5060458;28;20035;-61
2023/09/27 10:46:23;;;;;;;27.25;4.50;;;25.30;54.80;;;;;;5009522;28;20391;-61
2023/09/27 10:48:58;;;;;;;4.50;3.40;;;25.40;54.40;;;;;;5064236;28;20018;-61
2023/09/27 10:51:26;;;;;;;7.10;3.83;;;25.40;53.60;;;;;;5062601;28;20025;-61
2023/09/27 10:53:53;;;;;;;6.88;3.38;;;25.50;54.00;;;;;;5056301;28;20025;-62
2023/09/27 10:56:19;;;;;;;27.83;4.70;;;25.60;54.20;;;;;;5063890;28;20059;-62
2023/09/27 10:58:45;;;;;;;5.75;3.75;;;25.70;53.80;;;;;;5060153;28;20502;-62
2023/09/27 11:01:11;;;;;;;8.88;5.00;;;25.80;53.80;;;;;;5061503;28;20527;-62
2023/09/27 11:03:37;;;;;;;19.83;3.75;;;25.80;53.20;;;;;;5064877;28;20119;-62
2023/09/27 11:06:10;;;;;;;13.57;4.32;;;25.90;52.90;;;;;;5060947;28;20348;-63
2023/09/27 11:08:36;;;;;;;3.88;3.45;;;25.90;52.20;;;;;;5061494;28;20036;-61
2023/09/27 11:11:05;;;;;;;6.50;3.40;;;26.00;52.60;;;;;;5062920;28;20103;-62
2023/09/27 11:13:32;;;;;;;4.88;3.13;;;26.00;52.20;;;;;;5063520;28;20049;-62
2023/09/27 11:16:11;;;;;;;9.90;3.55;;;26.00;52.10;;;;;;5073806;28;20036;-62
2023/09/27 11:18:44;;;;;;;4.25;3.03;;;26.10;51.10;;;;;;5065116;28;20059;-64
2023/09/27 11:21:11;;;;;;;5.43;3.10;;;26.20;51.70;;;;;;5064561;28;20021;-62
2023/09/27 11:23:58;;;;;;;7.30;3.05;;;26.10;51.70;;;;;;5061639;28;20294;-62
2023/09/27 11:26:24;;;;;;;4.18;2.92;;;26.20;51.80;;;;;;5067701;28;20028;-62
2023/09/27 11:29:05;;;;;;;3.70;2.35;;;26.20;51.60;;;;;;5062080;28;20029;-61
2023/09/27 11:31:35;;;;;;;3.95;2.65;;;26.30;50.20;;;;;;5071565;28;20032;-63
2023/09/27 11:34:14;;;;;;;3.38;2.50;;;26.30;51.00;;;;;;5066768;28;20562;-62
2023/09/27 11:36:47;;;;;;;4.90;3.20;;;26.40;50.30;;;;;;5065069;28;20032;-63
2023/09/27 11:39:16;;;;;;;3.75;2.60;;;26.40;50.70;;;;;;5068455;28;20067;-63
2023/09/27 11:41:43;;;;;;;5.18;2.92;;;26.40;50.80;;;;;;5070197;28;20120;-63
2023/09/27 11:44:19;;;;;;;4.70;2.63;;;26.50;49.90;;;;;;5060437;28;20035;-63
2023/09/27 11:46:46;;;;;;;3.85;2.50;;;26.50;50.00;;;;;;5067328;28;20016;-63
2023/09/27 11:49:11;;;;;;;3.50;2.75;;;26.60;50.50;;;;;;5060249;28;20061;-63
2023/09/27 11:51:37;;;;;;;5.45;3.35;;;26.60;50.30;;;;;;5069055;28;20040;-63
2023/09/27 11:54:04;;;;;;;6.75;2.60;;;26.70;50.60;;;;;;5062929;28;20029;-62
2023/09/27 11:56:31;;;;;;;4.10;3.13;;;26.80;50.70;;;;;;5066134;28;20027;-63
2023/09/27 11:58:56;;;;;;;5.07;2.85;;;26.80;50.50;;;;;;5059334;28;20028;-63
2023/09/27 12:01:23;;;;;;;4.50;2.60;;;26.90;50.40;;;;;;5057671;28;20058;-61
2023/09/27 12:03:49;;;;;;;5.45;2.97;;;26.90;50.20;;;;;;5063546;28;20383;-63
2023/09/27 12:06:14;;;;;;;4.47;2.67;;;27.00;50.00;;;;;;5067058;28;20035;-63
2023/09/27 12:08:40;;;;;;;4.05;2.65;;;27.10;49.30;;;;;;5063529;28;20484;-63
2023/09/27 12:11:07;;;;;;;3.42;2.50;;;27.10;49.10;;;;;;5059226;28;20060;-63
2023/09/27 12:13:32;;;;;;;5.97;2.20;;;27.10;49.20;;;;;;5063117;28;20036;-63
2023/09/27 12:15:58;;;;;;;4.43;2.72;;;27.20;48.80;;;;;;5065481;28;20023;-62
2023/09/27 12:18:23;;;;;;;2.90;2.17;;;27.20;48.30;;;;;;5064472;28;20561;-62
2023/09/27 12:20:49;;;;;;;3.15;2.50;;;27.30;48.10;;;;;;5062800;28;20053;-64
2023/09/27 12:23:15;;;;;;;6.88;1.90;;;27.30;48.50;;;;;;5063945;28;20411;-64
2023/09/27 12:25:41;;;;;;;2.63;1.85;;;27.40;48.50;;;;;;5060633;28;20028;-63
2023/09/27 12:28:07;;;;;;;2.80;1.67;;;27.50;49.40;;;;;;5064964;28;20016;-63
2023/09/27 12:30:33;;;;;;;6.40;2.40;;;27.50;48.00;;;;;;5062941;28;20032;-62
2023/09/27 12:32:59;;;;;;;5.03;1.98;;;27.60;47.80;;;;;;5057805;28;20032;-63
2023/09/27 12:35:25;;;;;;;5.60;1.95;;;27.70;48.00;;;;;;5091320;27;20068;-61
2023/09/27 12:37:51;;;;;;;3.13;2.00;;;27.70;47.80;;;;;;5071420;28;20024;-64
2023/09/27 12:40:16;;;;;;;2.63;1.95;;;27.80;47.50;;;;;;5065594;28;20085;-63
2023/09/27 12:42:42;;;;;;;5.95;2.28;;;27.80;47.30;;;;;;5056180;28;20491;-63
2023/09/27 12:45:08;;;;;;;6.47;2.50;;;27.90;47.70;;;;;;5056900;28;20036;-62